createdAt,value
2023-02-11T00:01:24.384Z,84.87
2023-02-11T00:03:52.491Z,87.09
2023-02-11T00:06:20.022Z,86.91
2023-02-11T00:08:47.655Z,87.20
2023-02-11T00:11:18.063Z,87.27
2023-02-11T00:13:46.252Z,87.62
2023-02-11T00:16:20.213Z,87.85
2023-02-11T00:18:48.140Z,88.17
2023-02-11T00:21:18.545Z,87.96
2023-02-11T00:23:46.377Z,87.63
2023-02-11T00:26:15.562Z,87.89
2023-02-11T00:28:44.329Z,88.11
2023-02-11T00:31:12.631Z,88.01
2023-02-11T00:33:40.436Z,87.84
2023-02-11T00:36:18.510Z,88.41
2023-02-11T00:38:49.561Z,88.00
2023-02-11T00:41:18.294Z,88.92
2023-02-11T00:43:46.327Z,89.18
2023-02-11T00:46:14.245Z,88.43
2023-02-11T00:48:41.792Z,88.70
2023-02-11T00:51:10.289Z,88.69
2023-02-11T00:53:38.007Z,88.03
2023-02-11T00:56:05.528Z,89.26
2023-02-11T00:58:33.755Z,89.12
2023-02-11T01:01:01.713Z,88.79
2023-02-11T01:03:29.659Z,88.83
2023-02-11T01:05:57.161Z,88.50
2023-02-11T01:08:25.020Z,88.30
2023-02-11T01:11:00.577Z,88.91
2023-02-11T01:13:29.729Z,88.24
2023-02-11T01:15:58.864Z,87.60
2023-02-11T01:18:26.845Z,87.39
2023-02-11T01:20:55.170Z,87.71
2023-02-11T01:23:23.873Z,88.23
2023-02-11T01:25:52.890Z,88.09
2023-02-11T01:28:25.613Z,86.86
2023-02-11T01:30:53.929Z,86.32
2023-02-11T01:33:22.438Z,86.35
2023-02-11T01:35:50.616Z,86.56
2023-02-11T01:38:25.531Z,86.91
2023-02-11T01:40:55.736Z,86.30
2023-02-11T01:43:24.509Z,86.76
2023-02-11T01:46:03.523Z,86.03
2023-02-11T01:48:37.806Z,86.07
2023-02-11T01:51:16.300Z,85.92
2023-02-11T01:54:03.980Z,85.95
2023-02-11T01:56:49.941Z,86.42
2023-02-11T01:59:25.281Z,85.96
2023-02-11T02:01:59.854Z,85.53
2023-02-11T02:04:31.798Z,85.45
2023-02-11T02:07:08.581Z,84.98
2023-02-11T02:09:42.633Z,86.19
2023-02-11T02:12:10.204Z,87.56
2023-02-11T02:14:42.122Z,87.14
2023-02-11T02:17:36.455Z,87.61
2023-02-11T02:20:23.567Z,88.25
2023-02-11T02:23:12.312Z,88.28
2023-02-11T02:25:58.238Z,88.62
2023-02-11T02:28:46.114Z,88.87
2023-02-11T02:31:42.534Z,89.33
2023-02-11T02:34:20.963Z,90.97
2023-02-11T02:36:58.338Z,93.57
2023-02-11T02:39:32.191Z,95.33
2023-02-11T02:41:59.850Z,96.12
2023-02-11T02:44:27.432Z,96.29
2023-02-11T02:46:56.186Z,95.97
2023-02-11T02:49:23.907Z,96.38
2023-02-11T02:52:06.984Z,96.49
2023-02-11T02:54:49.843Z,96.91
2023-02-11T02:57:44.694Z,98.23
2023-02-11T03:00:42.366Z,98.25
2023-02-11T03:03:38.773Z,97.90
2023-02-11T03:06:12.008Z,96.70
2023-02-11T03:08:47.631Z,95.57
2023-02-11T03:11:19.719Z,96.00
2023-02-11T03:13:48.917Z,96.23
2023-02-11T03:16:22.845Z,96.66
2023-02-11T03:18:56.898Z,95.87
2023-02-11T03:21:25.873Z,94.61
2023-02-11T03:24:01.079Z,94.09
2023-02-11T03:26:49.828Z,95.63
2023-02-11T03:29:29.007Z,95.79
2023-02-11T03:31:59.293Z,97.91
2023-02-11T03:34:47.923Z,100.00
2023-02-11T03:37:23.980Z,100.00
2023-02-11T03:39:56.801Z,100.00
2023-02-11T03:42:27.324Z,100.00
2023-02-11T03:45:04.365Z,100.00
2023-02-11T03:47:34.856Z,100.00
2023-02-11T03:50:07.219Z,100.00
2023-02-11T03:52:37.543Z,100.00
2023-02-11T03:55:11.654Z,100.00
2023-02-11T03:57:39.551Z,100.00
2023-02-11T04:00:08.034Z,99.60
2023-02-11T04:02:41.944Z,98.91
2023-02-11T04:05:10.996Z,97.64
2023-02-11T04:07:38.513Z,97.29
2023-02-11T04:10:07.674Z,97.34
2023-02-11T04:12:35.300Z,96.84
2023-02-11T04:15:02.798Z,97.20
2023-02-11T04:17:30.942Z,97.60
2023-02-11T04:19:58.700Z,98.11
2023-02-11T04:22:26.137Z,97.69
2023-02-11T04:24:53.495Z,97.22
2023-02-11T04:27:20.729Z,97.58
2023-02-11T04:29:48.682Z,98.22
2023-02-11T04:32:16.422Z,97.32
2023-02-11T04:34:45.275Z,97.98
2023-02-11T04:37:13.002Z,98.94
2023-02-11T04:39:40.716Z,100.00
2023-02-11T04:42:08.109Z,100.00
2023-02-11T04:44:35.518Z,100.00
2023-02-11T04:47:02.937Z,100.00
2023-02-11T04:49:30.537Z,100.00
2023-02-11T04:51:58.009Z,100.00
2023-02-11T04:54:25.338Z,100.00
2023-02-11T04:56:53.216Z,100.00
2023-02-11T04:59:21.662Z,100.00
2023-02-11T05:01:50.221Z,100.00
2023-02-11T05:04:18.099Z,100.00
2023-02-11T05:06:45.442Z,100.00
2023-02-11T05:09:13.339Z,100.00
2023-02-11T05:11:41.437Z,100.00
2023-02-11T05:14:08.870Z,100.00
2023-02-11T05:16:36.986Z,100.00
2023-02-11T05:19:05.468Z,100.00
2023-02-11T05:21:33.287Z,100.00
2023-02-11T05:24:01.582Z,100.00
2023-02-11T05:26:29.648Z,100.00
2023-02-11T05:28:58.160Z,100.00
2023-02-11T05:31:26.848Z,100.00
2023-02-11T05:33:54.717Z,100.00
2023-02-11T05:36:22.250Z,100.00
2023-02-11T05:38:51.153Z,100.00
2023-02-11T05:41:18.664Z,99.58
2023-02-11T05:43:51.775Z,99.47
2023-02-11T05:46:20.802Z,99.04
2023-02-11T05:48:51.935Z,98.94
2023-02-11T05:51:19.969Z,99.54
2023-02-11T05:53:48.920Z,99.39
2023-02-11T05:56:16.420Z,99.40
2023-02-11T05:58:45.232Z,98.53
2023-02-11T06:01:13.472Z,97.40
2023-02-11T06:03:41.773Z,97.55
2023-02-11T06:06:13.434Z,97.14
2023-02-11T06:08:41.652Z,97.56
2023-02-11T06:11:09.784Z,97.22
2023-02-11T06:13:38.028Z,97.48
2023-02-11T06:16:06.692Z,97.06
2023-02-11T06:18:34.581Z,97.95
2023-02-11T06:21:02.315Z,98.17
2023-02-11T06:23:30.664Z,97.84
2023-02-11T06:26:03.956Z,97.47
2023-02-11T06:28:34.106Z,96.83
2023-02-11T06:31:07.051Z,95.94
2023-02-11T06:33:35.714Z,95.02
2023-02-11T06:36:05.231Z,94.48
2023-02-11T06:38:32.845Z,93.22
2023-02-11T06:41:01.602Z,91.92
2023-02-11T06:43:29.207Z,90.79
2023-02-11T06:45:56.932Z,89.56
2023-02-11T06:48:26.008Z,88.42
2023-02-11T06:50:54.982Z,88.17
2023-02-11T06:53:22.869Z,87.90
2023-02-11T06:55:51.533Z,87.27
2023-02-11T06:58:20.000Z,86.83
2023-02-11T07:00:47.512Z,86.38
2023-02-11T07:03:15.057Z,86.24
2023-02-11T07:05:45.902Z,86.08
2023-02-11T07:08:14.163Z,85.80
2023-02-11T07:10:43.475Z,85.50
2023-02-11T07:13:11.949Z,85.32
2023-02-11T07:15:40.070Z,85.64
2023-02-11T07:18:08.098Z,85.51
2023-02-11T07:20:37.183Z,85.68
2023-02-11T07:23:05.984Z,85.18
2023-02-11T07:25:34.040Z,85.51
2023-02-11T07:28:02.808Z,85.23
2023-02-11T07:31:45.098Z,84.78
2023-02-11T07:34:13.338Z,84.44
2023-02-11T07:36:44.294Z,83.99
2023-02-11T07:39:12.531Z,84.39
2023-02-11T07:41:40.956Z,84.69
2023-02-11T07:44:08.714Z,84.69
2023-02-11T07:46:36.707Z,84.82
2023-02-11T07:49:04.410Z,84.33
2023-02-11T07:51:32.613Z,84.53
2023-02-11T07:54:02.825Z,84.43
2023-02-11T07:56:35.548Z,83.69
2023-02-11T07:59:05.601Z,82.41
2023-02-11T08:01:34.478Z,82.58
2023-02-11T08:04:02.809Z,81.54
2023-02-11T08:06:33.412Z,81.09
2023-02-11T08:09:08.964Z,80.16
2023-02-11T08:11:36.995Z,80.33
2023-02-11T08:14:04.676Z,79.99
2023-02-11T08:16:36.697Z,78.74
2023-02-11T08:19:09.537Z,78.21
2023-02-11T08:21:37.715Z,78.20
2023-02-11T08:24:06.365Z,78.07
2023-02-11T08:26:35.425Z,77.09
2023-02-11T08:29:08.235Z,76.98
2023-02-11T08:31:40.547Z,77.20
2023-02-11T08:34:11.738Z,77.35
2023-02-11T08:36:43.207Z,76.28
2023-02-11T08:39:26.468Z,76.34
2023-02-11T08:41:59.744Z,75.61
2023-02-11T08:44:29.039Z,75.55
2023-02-11T08:46:58.065Z,75.13
2023-02-11T08:49:26.045Z,75.44
2023-02-11T08:51:56.412Z,75.41
2023-02-11T08:54:23.922Z,75.52
2023-02-11T08:56:52.466Z,75.75
2023-02-11T08:59:21.282Z,75.62
2023-02-11T09:01:51.244Z,75.93
2023-02-11T09:04:20.473Z,76.60
2023-02-11T09:06:48.761Z,76.54
2023-02-11T09:09:18.457Z,76.24
2023-02-11T09:11:49.548Z,76.45
2023-02-11T09:14:23.745Z,77.11
2023-02-11T09:16:54.474Z,77.02
2023-02-11T09:19:23.897Z,76.33
2023-02-11T09:21:55.814Z,75.70
2023-02-11T09:24:28.535Z,75.95
2023-02-11T09:26:57.010Z,75.91
2023-02-11T09:29:24.629Z,75.07
2023-02-11T09:31:53.657Z,75.58
2023-02-11T09:34:21.976Z,75.13
2023-02-11T09:36:50.765Z,75.72
2023-02-11T09:39:21.704Z,75.56
2023-02-11T09:41:56.421Z,73.80
2023-02-11T09:44:30.605Z,73.87
2023-02-11T09:47:02.086Z,73.93
2023-02-11T09:50:07.842Z,72.65
2023-02-11T09:52:42.607Z,72.23
2023-02-11T09:55:29.547Z,72.01
2023-02-11T09:57:59.871Z,71.70
2023-02-11T10:01:02.709Z,70.77
2023-02-11T10:04:05.155Z,71.01
2023-02-11T10:06:54.480Z,71.19
2023-02-11T10:09:46.886Z,72.35
2023-02-11T10:12:33.877Z,73.01
2023-02-11T10:15:18.227Z,72.86
2023-02-11T10:18:17.100Z,73.45
2023-02-11T10:20:51.829Z,73.39
2023-02-11T10:23:25.292Z,73.84
2023-02-11T10:25:55.178Z,73.59
2023-02-11T10:28:37.858Z,73.77
2023-02-11T10:31:27.400Z,74.29
2023-02-11T10:33:59.476Z,75.30
2023-02-11T10:36:34.871Z,75.80
2023-02-11T10:39:25.056Z,75.79
2023-02-11T10:41:54.381Z,76.06
2023-02-11T10:44:25.341Z,75.32
2023-02-11T10:46:55.100Z,76.02
2023-02-11T10:49:38.366Z,75.16
2023-02-11T10:52:32.220Z,76.08
2023-02-11T10:55:18.040Z,76.20
2023-02-11T10:58:00.769Z,76.01
2023-02-11T11:00:41.389Z,75.97
2023-02-11T11:03:20.888Z,76.44
2023-02-11T11:05:51.420Z,76.92
2023-02-11T11:08:20.093Z,77.24
2023-02-11T11:11:15.959Z,78.40
2023-02-11T11:14:04.085Z,78.46
2023-02-11T11:16:34.031Z,78.57
2023-02-11T11:19:07.512Z,77.81
2023-02-11T11:21:42.169Z,78.13
2023-02-11T11:24:54.588Z,76.12
2023-02-11T11:27:26.758Z,75.58
2023-02-11T11:29:57.197Z,75.67
2023-02-11T11:32:37.847Z,76.36
2023-02-11T11:35:22.008Z,76.36
2023-02-11T11:37:55.900Z,76.48
2023-02-11T11:40:27.796Z,75.53
2023-02-11T11:43:13.593Z,74.17
2023-02-11T11:45:55.778Z,74.36
2023-02-11T11:48:29.114Z,72.59
2023-02-11T11:51:00.602Z,72.27
2023-02-11T11:53:51.334Z,73.92
2023-02-11T11:56:25.884Z,73.76
2023-02-11T11:58:54.859Z,73.39
2023-02-11T12:01:40.906Z,74.99
2023-02-11T12:04:16.266Z,75.11
2023-02-11T12:07:09.139Z,76.32
2023-02-11T12:10:06.202Z,78.00
2023-02-11T12:12:55.573Z,78.03
2023-02-11T12:15:34.027Z,77.86
2023-02-11T12:18:25.634Z,77.56
2023-02-11T12:21:13.652Z,76.86
2023-02-11T12:24:08.937Z,75.53
2023-02-11T12:27:02.926Z,75.46
2023-02-11T12:29:55.751Z,76.20
2023-02-11T12:32:48.274Z,75.70
2023-02-11T12:35:29.812Z,75.33
2023-02-11T12:37:58.311Z,74.34
2023-02-11T12:40:52.171Z,74.64
2023-02-11T12:43:25.836Z,73.91
2023-02-11T12:46:23.511Z,73.25
2023-02-11T12:49:03.814Z,73.09
2023-02-11T12:51:49.488Z,74.27
2023-02-11T12:55:15.819Z,73.60
2023-02-11T12:57:47.103Z,73.55
2023-02-11T13:00:23.779Z,73.12
2023-02-11T13:03:30.584Z,72.49
2023-02-11T13:06:22.145Z,72.43
2023-02-11T13:09:03.825Z,72.87
2023-02-11T13:11:39.817Z,74.03
2023-02-11T13:14:29.948Z,74.08
2023-02-11T13:16:59.269Z,72.72
2023-02-11T13:19:31.862Z,72.51
2023-02-11T13:22:24.916Z,72.16
2023-02-11T13:25:36.024Z,72.50
2023-02-11T13:28:26.299Z,71.50
2023-02-11T13:31:03.292Z,70.84
2023-02-11T13:33:44.975Z,69.94
2023-02-11T13:36:27.785Z,70.39
2023-02-11T13:39:05.585Z,70.38
2023-02-11T13:41:40.069Z,70.17
2023-02-11T13:44:12.348Z,70.66
2023-02-11T13:46:59.857Z,71.57
2023-02-11T13:49:42.738Z,71.47
2023-02-11T13:52:24.049Z,70.70
2023-02-11T13:54:54.877Z,70.59
2023-02-11T13:57:29.227Z,71.52
2023-02-11T14:00:02.176Z,71.26
2023-02-11T14:02:56.463Z,72.75
2023-02-11T14:05:51.758Z,72.83
2023-02-11T14:08:40.392Z,73.34
2023-02-11T14:11:33.519Z,73.54
2023-02-11T14:14:16.129Z,75.27
2023-02-11T14:17:02.883Z,75.55
2023-02-11T14:19:35.765Z,77.09
2023-02-11T14:22:29.929Z,78.30
2023-02-11T14:25:01.703Z,79.01
2023-02-11T14:27:32.830Z,78.63
2023-02-11T14:30:43.440Z,78.46
2023-02-11T14:33:17.160Z,79.32
2023-02-11T14:36:06.064Z,78.46
2023-02-11T14:38:36.176Z,78.13
2023-02-11T14:41:23.828Z,77.55
2023-02-11T14:43:58.673Z,77.60
2023-02-11T14:46:31.631Z,78.69
2023-02-11T14:49:05.985Z,79.21
2023-02-11T14:51:41.800Z,77.47
2023-02-11T14:54:24.195Z,78.21
2023-02-11T14:57:06.988Z,77.59
2023-02-11T14:59:37.385Z,76.76
2023-02-11T15:02:23.822Z,77.89
2023-02-11T15:04:53.289Z,77.42
2023-02-11T15:07:25.800Z,78.13
2023-02-11T15:09:54.790Z,76.15
2023-02-11T15:12:29.150Z,76.12
2023-02-11T15:15:00.968Z,76.27
2023-02-11T15:17:32.489Z,75.65
2023-02-11T15:20:02.866Z,75.79
2023-02-11T15:22:37.171Z,75.74
2023-02-11T15:25:07.981Z,75.28
2023-02-11T15:27:44.249Z,75.84
2023-02-11T15:30:24.274Z,76.07
2023-02-11T15:33:03.497Z,74.73
2023-02-11T15:35:38.563Z,75.09
2023-02-11T15:38:06.039Z,74.83
2023-02-11T15:40:36.477Z,75.05
2023-02-11T15:43:06.604Z,74.43
2023-02-11T15:45:36.923Z,74.13
2023-02-11T15:48:14.880Z,74.30
2023-02-11T15:50:52.231Z,73.35
2023-02-11T15:53:40.696Z,74.44
2023-02-11T15:56:30.795Z,74.38
2023-02-11T15:59:03.296Z,75.29
2023-02-11T16:01:37.506Z,74.69
2023-02-11T16:04:05.985Z,73.72
2023-02-11T16:06:40.689Z,74.10
2023-02-11T16:09:11.444Z,74.76
2023-02-11T16:11:48.064Z,73.66
2023-02-11T16:14:39.598Z,74.43
2023-02-11T16:17:13.341Z,74.56
2023-02-11T16:19:45.945Z,74.22
2023-02-11T16:22:20.752Z,74.08
2023-02-11T16:24:50.048Z,74.34
2023-02-11T16:27:31.609Z,73.99
2023-02-11T16:29:59.232Z,74.00
2023-02-11T16:32:29.066Z,73.03
2023-02-11T16:34:59.578Z,74.09
2023-02-11T16:37:27.508Z,73.37
2023-02-11T16:39:56.817Z,73.49
2023-02-11T16:42:24.632Z,74.32
2023-02-11T16:44:52.108Z,73.95
2023-02-11T16:47:27.869Z,74.24
2023-02-11T16:49:56.468Z,74.57
2023-02-11T16:52:24.587Z,74.13
2023-02-11T16:54:52.341Z,74.39
2023-02-11T16:57:28.750Z,74.49
2023-02-11T17:00:00.131Z,74.37
2023-02-11T17:02:33.635Z,74.46
2023-02-11T17:05:15.567Z,73.80
2023-02-11T17:07:44.401Z,74.42
2023-02-11T17:10:24.927Z,73.94
2023-02-11T17:12:54.799Z,73.37
2023-02-11T17:15:22.432Z,73.50
2023-02-11T17:17:52.795Z,73.75
2023-02-11T17:20:21.051Z,73.33
2023-02-11T17:22:48.870Z,73.96
2023-02-11T17:25:16.979Z,74.04
2023-02-11T17:27:44.748Z,73.88
2023-02-11T17:30:14.534Z,73.37
2023-02-11T17:32:41.871Z,73.58
2023-02-11T17:35:09.388Z,73.49
2023-02-11T17:37:37.115Z,73.07
2023-02-11T17:40:05.121Z,73.14
2023-02-11T17:42:32.648Z,73.44
2023-02-11T17:44:59.976Z,73.90
2023-02-11T17:47:27.350Z,73.55
2023-02-11T17:49:54.717Z,73.23
2023-02-11T17:52:22.047Z,73.94
2023-02-11T17:54:49.240Z,73.77
2023-02-11T17:57:16.778Z,74.57
2023-02-11T17:59:45.713Z,73.84
2023-02-11T18:02:13.660Z,73.88
2023-02-11T18:04:41.333Z,73.66
2023-02-11T18:07:09.308Z,74.08
2023-02-11T18:09:41.459Z,74.24
2023-02-11T18:12:10.428Z,74.18
2023-02-11T18:14:41.009Z,74.96
2023-02-11T18:17:08.650Z,75.13
2023-02-11T18:19:36.777Z,75.45
2023-02-11T18:22:04.753Z,76.00
2023-02-11T18:24:32.738Z,75.83
2023-02-11T18:27:00.095Z,75.33
2023-02-11T18:29:27.762Z,76.55
2023-02-11T18:31:57.071Z,76.34
2023-02-11T18:34:25.288Z,76.71
2023-02-11T18:36:55.922Z,77.57
2023-02-11T18:39:27.607Z,78.61
2023-02-11T18:41:57.089Z,79.07
2023-02-11T18:44:25.157Z,80.98
2023-02-11T18:46:53.858Z,82.67
2023-02-11T18:49:22.695Z,84.14
2023-02-11T18:51:50.611Z,85.36
2023-02-11T18:54:17.801Z,86.58
2023-02-11T18:56:45.699Z,86.72
2023-02-11T18:59:13.662Z,87.61
2023-02-11T19:01:43.667Z,88.08
2023-02-11T19:04:12.020Z,87.80
2023-02-11T19:06:39.704Z,88.14
2023-02-11T19:09:10.804Z,87.93
2023-02-11T19:11:51.107Z,88.73
2023-02-11T19:14:25.344Z,88.58
2023-02-11T19:16:58.464Z,87.65
2023-02-11T19:19:28.705Z,86.87
2023-02-11T19:21:57.558Z,86.76
2023-02-11T19:24:25.605Z,86.63
2023-02-11T19:26:56.759Z,86.09
2023-02-11T19:29:24.622Z,86.60
2023-02-11T19:31:51.942Z,86.45
2023-02-11T19:34:21.108Z,86.46
2023-02-11T19:36:49.908Z,86.65
2023-02-11T19:39:18.706Z,87.01
2023-02-11T19:41:47.946Z,87.12
2023-02-11T19:44:16.604Z,87.39
2023-02-11T19:46:44.664Z,87.10
2023-02-11T19:49:16.035Z,87.31
2023-02-11T19:51:44.717Z,87.97
2023-02-11T19:54:14.994Z,89.02
2023-02-11T19:56:43.579Z,90.18
2023-02-11T19:59:13.093Z,91.81
2023-02-11T20:01:41.116Z,91.23
2023-02-11T20:04:08.835Z,92.57
2023-02-11T20:06:36.535Z,93.06
2023-02-11T20:09:14.176Z,93.69
2023-02-11T20:11:42.957Z,94.06
2023-02-11T20:14:13.302Z,94.52
2023-02-11T20:16:49.040Z,94.71
2023-02-11T20:19:22.333Z,95.76
2023-02-11T20:21:52.766Z,95.74
2023-02-11T20:24:22.725Z,97.13
2023-02-11T20:26:53.702Z,97.63
2023-02-11T20:29:30.915Z,98.58
2023-02-11T20:31:58.848Z,99.13
2023-02-11T20:34:27.276Z,99.04
2023-02-11T20:36:55.286Z,100.00
2023-02-11T20:39:24.790Z,100.00
2023-02-11T20:41:55.115Z,100.00
2023-02-11T20:44:23.548Z,100.00
2023-02-11T20:46:51.881Z,100.00
2023-02-11T20:49:23.249Z,100.00
2023-02-11T20:51:54.319Z,100.00
2023-02-11T20:54:23.514Z,100.00
2023-02-11T20:56:51.432Z,100.00
2023-02-11T20:59:21.583Z,100.00
2023-02-11T21:01:53.920Z,100.00
2023-02-11T21:04:24.377Z,100.00
2023-02-11T21:06:56.512Z,100.00
2023-02-11T21:09:28.080Z,100.00
2023-02-11T21:11:57.312Z,100.00
2023-02-11T21:14:26.410Z,100.00
2023-02-11T21:16:55.331Z,100.00
2023-02-11T21:19:22.666Z,100.00
2023-02-11T21:21:50.998Z,100.00
2023-02-11T21:24:18.933Z,100.00
2023-02-11T21:26:46.311Z,100.00
2023-02-11T21:29:14.910Z,100.00
2023-02-11T21:31:42.492Z,100.00
2023-02-11T21:34:11.238Z,100.00
2023-02-11T21:36:40.589Z,100.00
2023-02-11T21:39:09.261Z,100.00
2023-02-11T21:41:36.851Z,100.00
2023-02-11T21:44:04.425Z,100.00
2023-02-11T21:46:32.897Z,100.00
2023-02-11T21:49:00.891Z,100.00
2023-02-11T21:51:28.566Z,100.00
2023-02-11T21:53:58.714Z,100.00
2023-02-11T21:56:28.460Z,100.00
2023-02-11T21:58:59.924Z,100.00
2023-02-11T22:01:33.328Z,100.00
2023-02-11T22:04:00.898Z,100.00
2023-02-11T22:06:31.559Z,100.00
2023-02-11T22:09:02.304Z,100.00
2023-02-11T22:11:29.737Z,100.00
2023-02-11T22:13:58.040Z,100.00
2023-02-11T22:16:27.777Z,100.00
2023-02-11T22:18:58.733Z,100.00
2023-02-11T22:21:27.122Z,100.00
2023-02-11T22:23:55.772Z,100.00
2023-02-11T22:26:25.405Z,100.00
2023-02-11T22:28:55.028Z,100.00
2023-02-11T22:31:29.374Z,100.00
2023-02-11T22:33:57.516Z,100.00
2023-02-11T22:36:28.094Z,100.00
2023-02-11T22:38:56.170Z,100.00
2023-02-11T22:41:24.184Z,100.00
2023-02-11T22:43:52.379Z,100.00
2023-02-11T22:46:20.170Z,100.00
2023-02-11T22:48:50.847Z,100.00
2023-02-11T22:51:23.501Z,100.00
2023-02-11T22:53:59.281Z,100.00
2023-02-11T22:56:28.742Z,100.00
2023-02-11T22:59:05.086Z,100.00
2023-02-11T23:01:33.560Z,100.00
2023-02-11T23:04:03.125Z,100.00
2023-02-11T23:06:30.840Z,100.00
2023-02-11T23:08:58.289Z,100.00
2023-02-11T23:11:28.631Z,100.00
2023-02-11T23:13:56.691Z,100.00
2023-02-11T23:16:27.568Z,100.00
2023-02-11T23:18:55.799Z,100.00
2023-02-11T23:21:28.866Z,100.00
2023-02-11T23:23:59.132Z,100.00
2023-02-11T23:26:27.006Z,100.00
2023-02-11T23:28:54.982Z,100.00
2023-02-11T23:31:26.400Z,100.00
2023-02-11T23:33:56.538Z,100.00
2023-02-11T23:36:24.132Z,100.00
2023-02-11T23:38:51.656Z,100.00
2023-02-11T23:41:19.177Z,100.00
2023-02-11T23:43:52.131Z,100.00
2023-02-11T23:46:20.048Z,100.00
2023-02-11T23:48:47.709Z,100.00
2023-02-11T23:51:15.035Z,100.00
2023-02-11T23:53:42.288Z,100.00
2023-02-11T23:56:13.839Z,100.00
2023-02-11T23:58:51.020Z,100.00
